Time;durP1;ratioP1;P1;durP2;ratioP2;P2;SDS_P1;SDS_P2;PMS_P1;PMS_P2;Temp;Humidity;BMP_temperature;BMP_pressure;BME280_temperature;BME280_humidity;BME280_pressure;Samples;Min_cycle;Max_cycle;Signal;HPM_P1;HPM_P2
2022/02/05 00:01:22;;;;;;;6.78;1.88;;;;;;;3.29;68.79;99172.41;2618148;54;20037;-65
2022/02/05 00:03:59;;;;;;;6.72;2.17;;;;;;;3.28;68.50;99168.16;2618895;31;20563;-65
2022/02/05 00:06:34;;;;;;;4.97;1.80;;;;;;;3.32;68.86;99172.97;2618466;54;20070;-65
2022/02/05 00:09:11;;;;;;;8.52;2.33;;;;;;;3.27;68.63;99182.19;2618481;54;20083;-63
2022/02/05 00:41:52;;;;;;;8.38;2.00;;;;;;;2.89;69.74;99200.25;2618505;54;20030;-65
2022/02/05 00:44:21;;;;;;;4.50;2.33;;;;;;;2.82;70.39;99206.19;2619285;54;20155;-63
2022/02/05 00:46:52;;;;;;;6.72;1.92;;;;;;;2.76;70.57;99204.09;2618637;54;20093;-64
2022/02/05 00:49:21;;;;;;;5.55;2.40;;;;;;;2.72;70.76;99200.91;2618940;54;20035;-63
2022/02/05 00:52:00;;;;;;;8.80;2.80;;;;;;;2.67;70.71;99198.69;2618930;54;20034;-64
2022/02/05 00:54:29;;;;;;;5.65;2.13;;;;;;;2.62;70.80;99206.09;2619486;39;20434;-65
2022/02/05 00:59:42;;;;;;;6.07;2.45;;;;;;;2.52;71.61;99204.41;2618588;46;20034;-64
2022/02/05 01:02:11;;;;;;;7.88;2.88;;;;;;;2.52;71.74;99212.25;2620063;54;20122;-65
2022/02/05 01:04:41;;;;;;;4.93;2.25;;;;;;;2.50;71.99;99209.78;2622123;54;20038;-65
2022/02/05 01:07:13;;;;;;;6.32;2.60;;;;;;;2.56;71.85;99211.03;2621078;54;20019;-63
2022/02/05 01:09:46;;;;;;;6.18;2.90;;;;;;;2.59;71.78;99218.59;2622121;54;20026;-65
2022/02/05 01:12:17;;;;;;;4.63;2.57;;;;;;;2.56;71.89;99221.47;2622208;54;20039;-67
2022/02/05 01:14:53;;;;;;;5.65;2.88;;;;;;;2.55;71.44;99222.41;2621484;47;20295;-65
2022/02/05 01:17:29;;;;;;;7.72;2.83;;;;;;;2.56;71.84;99224.06;2621845;54;20031;-64
2022/02/05 01:22:46;;;;;;;6.70;3.03;;;;;;;2.61;71.90;99240.16;2621960;54;20538;-65
2022/02/05 01:25:20;;;;;;;6.50;3.15;;;;;;;2.61;72.07;99235.78;2622273;54;20549;-64
2022/02/05 01:27:54;;;;;;;6.93;3.35;;;;;;;2.59;71.93;99242.09;2621932;54;20589;-64
2022/02/05 01:30:27;;;;;;;12.20;3.58;;;;;;;2.58;72.16;99248.28;2622632;39;20456;-64
2022/02/05 01:33:08;;;;;;;10.68;3.70;;;;;;;2.54;72.34;99255.53;2622488;54;20117;-64
2022/02/05 01:35:46;;;;;;;9.35;3.03;;;;;;;2.50;72.33;99259.34;2621989;54;20066;-64
2022/02/05 01:49:47;;;;;;;10.40;3.78;;;;;;;2.56;72.38;99273.66;2617937;47;20031;-63
2022/02/05 01:52:16;;;;;;;8.93;3.45;;;;;;;2.55;72.24;99270.22;2618086;54;20038;-64
2022/02/05 01:55:11;;;;;;;8.18;3.67;;;;;;;2.59;72.87;99281.22;2620771;54;20034;-64
2022/02/05 01:57:51;;;;;;;6.93;3.40;;;;;;;2.61;72.81;99280.16;2622577;54;20073;-66
2022/02/05 02:05:53;;;;;;;9.63;4.38;;;;;;;2.69;72.67;99284.69;2623813;54;20074;-64
2022/02/05 02:11:26;;;;;;;10.07;3.75;;;;;;;2.76;72.93;99280.63;2623423;54;20038;-63
2022/02/05 02:17:10;;;;;;;8.18;3.85;;;;;;;2.83;72.93;99286.97;2620845;54;20033;-65
2022/02/05 02:19:51;;;;;;;11.63;4.10;;;;;;;2.92;72.73;99280.13;2619028;54;20114;-63
2022/02/05 02:22:29;;;;;;;10.25;3.67;;;;;;;2.87;72.72;99287.53;2618690;54;20078;-64
2022/02/05 02:25:06;;;;;;;7.88;3.80;;;;;;;2.85;72.89;99294.66;2618546;54;20057;-64
2022/02/05 02:27:42;;;;;;;11.25;4.68;;;;;;;2.88;73.05;99290.00;2619127;39;20454;-64
2022/02/05 02:30:17;;;;;;;9.07;4.32;;;;;;;2.92;73.14;99299.25;2618615;54;20034;-64
2022/02/05 02:32:51;;;;;;;6.13;3.35;;;;;;;2.97;73.03;99298.84;2618340;54;20086;-64
2022/02/05 02:35:25;;;;;;;12.15;4.53;;;;;;;2.97;72.95;99304.88;2618489;54;20051;-64
2022/02/05 02:38:03;;;;;;;8.85;4.25;;;;;;;2.98;72.78;99300.50;2618944;47;20031;-65
2022/02/05 02:40:40;;;;;;;9.45;3.90;;;;;;;3.03;72.55;99303.56;2619575;54;20046;-64
2022/02/05 02:43:15;;;;;;;9.50;3.90;;;;;;;3.05;72.51;99295.56;2618597;54;20078;-64
2022/02/05 02:45:46;;;;;;;9.68;4.68;;;;;;;3.04;73.06;99299.16;2618372;54;20034;-63
2022/02/05 02:48:17;;;;;;;8.52;4.20;;;;;;;3.06;72.65;99302.44;2618072;54;20026;-64
2022/02/05 02:59:01;;;;;;;6.57;3.70;;;;;;;3.02;72.96;99308.88;2618450;54;20089;-63
2022/02/05 03:01:33;;;;;;;12.43;4.40;;;;;;;2.99;72.75;99310.00;2618391;54;20034;-66
2022/02/05 03:04:02;;;;;;;7.78;3.95;;;;;;;3.01;73.20;99315.06;2618174;54;20122;-66
2022/02/05 03:06:32;;;;;;;7.72;3.92;;;;;;;3.02;73.36;99319.34;2618368;54;20058;-64
2022/02/05 03:09:04;;;;;;;12.02;5.00;;;;;;;3.03;73.11;99334.06;2617542;46;20078;-64
2022/02/05 03:11:33;;;;;;;13.07;5.30;;;;;;;3.10;73.12;99332.56;2617716;47;20134;-63
2022/02/05 03:14:03;;;;;;;7.78;4.03;;;;;;;3.16;73.24;99332.06;2618043;54;20070;-63
2022/02/05 03:16:36;;;;;;;6.03;4.15;;;;;;;3.23;73.06;99341.03;2618630;54;20034;-65
2022/02/05 03:19:15;;;;;;;7.47;3.55;;;;;;;3.25;73.30;99335.66;2618255;54;20034;-64
2022/02/05 03:21:45;;;;;;;13.65;5.28;;;;;;;3.28;72.84;99343.22;2619059;31;20486;-64
2022/02/05 03:24:17;;;;;;;8.60;4.53;;;;;;;3.31;73.27;99340.38;2618025;54;20087;-64
2022/02/05 03:26:47;;;;;;;5.60;3.97;;;;;;;3.34;72.99;99353.97;2617705;47;20046;-63
2022/02/05 03:29:16;;;;;;;9.35;4.22;;;;;;;3.36;73.04;99359.91;2618025;54;20130;-63
2022/02/05 03:31:50;;;;;;;10.48;4.55;;;;;;;3.36;73.12;99357.28;2618035;54;20130;-63
2022/02/05 03:34:19;;;;;;;10.32;4.32;;;;;;;3.35;72.58;99358.25;2618044;54;20061;-63
2022/02/05 03:36:49;;;;;;;7.35;3.90;;;;;;;3.29;73.06;99364.00;2617515;54;20026;-64
2022/02/05 03:39:21;;;;;;;9.68;4.18;;;;;;;3.26;72.82;99363.44;2618571;39;20509;-64
2022/02/05 03:41:51;;;;;;;10.52;4.15;;;;;;;3.26;72.87;99364.25;2618250;54;20066;-64
2022/02/05 03:44:21;;;;;;;9.32;3.65;;;;;;;3.14;72.92;99362.69;2617839;54;20034;-64
2022/02/05 03:46:53;;;;;;;10.98;4.00;;;;;;;3.15;73.43;99374.81;2618345;39;20427;-64
2022/02/05 03:49:24;;;;;;;8.23;3.97;;;;;;;3.21;73.69;99372.50;2617921;54;20123;-64
2022/02/05 03:51:58;;;;;;;9.55;4.15;;;;;;;3.26;73.67;99373.88;2618163;54;20034;-64
2022/02/05 03:54:31;;;;;;;8.90;4.45;;;;;;;3.30;73.28;99378.72;2618206;54;20031;-64
2022/02/05 03:57:01;;;;;;;7.28;3.42;;;;;;;3.34;73.70;99376.66;2618310;54;20142;-64
2022/02/05 03:59:31;;;;;;;8.68;4.43;;;;;;;3.37;73.20;99384.25;2619092;54;20692;-63
2022/02/05 04:02:01;;;;;;;10.70;4.57;;;;;;;3.39;73.48;99387.56;2619186;54;20070;-64
2022/02/05 04:04:31;;;;;;;7.90;3.67;;;;;;;3.34;73.55;99394.94;2619405;54;20022;-64
2022/02/05 04:07:01;;;;;;;8.20;4.35;;;;;;;3.39;73.37;99392.78;2618544;54;20522;-64
2022/02/05 04:09:39;;;;;;;8.52;3.70;;;;;;;3.39;73.26;99392.78;2618960;54;20121;-63
2022/02/05 04:17:44;;;;;;;10.40;4.38;;;;;;;3.25;73.61;99395.75;2617364;54;20056;-64
2022/02/05 04:20:13;;;;;;;12.23;4.60;;;;;;;3.19;73.45;99411.00;2618488;54;20065;-65
2022/02/05 04:22:43;;;;;;;6.82;3.83;;;;;;;3.21;73.57;99409.06;2618337;54;20023;-64
2022/02/05 04:25:16;;;;;;;7.03;5.30;;;;;;;3.17;74.05;99414.69;2618156;54;20090;-62
2022/02/05 04:27:45;;;;;;;15.27;5.55;;;;;;;3.14;74.04;99410.56;2618254;54;20125;-62
2022/02/05 04:30:16;;;;;;;9.75;4.55;;;;;;;3.09;74.36;99412.72;2619872;31;20506;-63
2022/02/05 04:32:46;;;;;;;10.35;4.82;;;;;;;3.10;74.22;99417.00;2618698;54;20053;-62
2022/02/05 04:35:15;;;;;;;12.35;5.60;;;;;;;3.07;74.51;99422.50;2618701;54;20118;-63
2022/02/05 04:37:48;;;;;;;11.32;5.22;;;;;;;2.97;74.88;99422.41;2618486;54;20109;-62
2022/02/05 04:40:27;;;;;;;12.65;5.70;;;;;;;2.96;74.88;99428.59;2619039;54;20085;-63
2022/02/05 04:43:12;;;;;;;17.85;5.80;;;;;;;2.98;74.45;99425.88;2620161;54;20039;-63
2022/02/05 04:46:10;;;;;;;10.23;5.55;;;;;;;3.02;74.76;99424.66;2621743;54;20071;-65
2022/02/05 04:49:16;;;;;;;10.30;5.65;;;;;;;2.99;74.66;99432.75;2620633;54;20030;-64
2022/02/05 04:57:41;;;;;;;15.50;6.50;;;;;;;3.04;74.42;99422.75;2619417;54;20055;-64
2022/02/05 05:03:11;;;;;;;10.10;6.03;;;;;;;2.94;74.51;99427.09;2618787;54;20131;-64
2022/02/05 05:06:03;;;;;;;9.30;5.53;;;;;;;2.91;74.90;99433.41;2618209;54;20126;-62
2022/02/05 05:08:42;;;;;;;13.43;6.35;;;;;;;2.90;74.68;99436.16;2618702;54;20045;-64
2022/02/05 05:11:43;;;;;;;15.00;6.43;;;;;;;2.94;75.15;99432.31;2619008;54;20534;-64
2022/02/05 05:19:46;;;;;;;16.13;5.95;;;;;;;2.90;75.33;99441.38;2619339;54;20035;-64
2022/02/05 05:22:18;;;;;;;14.15;6.32;;;;;;;2.90;75.45;99438.75;2621302;54;20034;-64
2022/02/05 05:24:47;;;;;;;17.35;6.57;;;;;;;2.95;75.50;99440.00;2620159;54;20038;-67
2022/02/05 05:27:17;;;;;;;9.35;5.88;;;;;;;2.97;75.04;99445.09;2619166;54;20034;-62
2022/02/05 05:29:49;;;;;;;12.32;6.93;;;;;;;2.93;75.19;99435.88;2618754;54;20047;-63
2022/02/05 05:32:20;;;;;;;19.92;6.80;;;;;;;2.96;75.03;99433.84;2618971;54;20585;-64
2022/02/05 05:34:50;;;;;;;9.18;6.30;;;;;;;3.00;75.17;99429.19;2618567;54;20102;-63
2022/02/05 05:37:21;;;;;;;14.45;7.13;;;;;;;2.89;75.14;99430.06;2618760;54;20030;-63
2022/02/05 05:39:54;;;;;;;12.73;6.68;;;;;;;2.86;75.50;99437.34;2618922;54;20350;-63
2022/02/05 05:42:27;;;;;;;11.30;6.90;;;;;;;2.88;75.79;99445.88;2618607;46;20042;-63
2022/02/05 05:45:18;;;;;;;18.80;6.83;;;;;;;2.87;75.62;99452.06;2618577;54;20558;-63
2022/02/05 05:47:54;;;;;;;15.00;6.95;;;;;;;2.83;75.50;99448.88;2618647;54;20081;-63
2022/02/05 05:50:58;;;;;;;11.43;5.95;;;;;;;2.93;75.77;99444.53;2618167;54;20026;-63
2022/02/05 05:53:29;;;;;;;13.82;6.38;;;;;;;2.95;74.90;99431.34;2619114;54;20034;-63
2022/02/05 05:56:02;;;;;;;11.00;6.22;;;;;;;2.92;74.83;99436.84;2618768;54;20125;-62
2022/02/05 05:58:32;;;;;;;9.82;6.00;;;;;;;2.86;74.83;99434.75;2618480;54;20046;-63
2022/02/05 06:01:07;;;;;;;17.02;7.13;;;;;;;2.82;74.98;99434.16;2618928;54;20034;-63
2022/02/05 06:03:37;;;;;;;11.13;6.80;;;;;;;2.87;75.02;99436.41;2618661;54;20039;-63
2022/02/05 06:06:06;;;;;;;13.55;6.90;;;;;;;2.81;74.90;99450.78;2617821;54;20026;-64
2022/02/05 06:08:36;;;;;;;10.05;6.60;;;;;;;2.86;74.99;99453.03;2618599;54;20034;-63
2022/02/05 06:11:06;;;;;;;12.90;6.40;;;;;;;2.83;74.85;99454.09;2618161;54;20050;-64
2022/02/05 06:13:36;;;;;;;17.50;6.30;;;;;;;2.82;74.84;99455.06;2618662;54;20570;-63
2022/02/05 06:16:12;;;;;;;11.02;6.50;;;;;;;2.78;75.08;99458.88;2618573;54;20179;-63
2022/02/05 06:18:42;;;;;;;13.82;6.85;;;;;;;2.81;74.94;99460.38;2618563;54;20070;-63
2022/02/05 06:21:11;;;;;;;11.50;6.80;;;;;;;2.81;74.58;99455.16;2618665;54;20198;-63
2022/02/05 06:23:41;;;;;;;15.18;6.82;;;;;;;2.88;74.74;99464.97;2618786;54;20069;-63
2022/02/05 06:26:10;;;;;;;10.75;7.28;;;;;;;2.88;74.90;99464.97;2618165;54;20081;-63
2022/02/05 06:28:40;;;;;;;12.75;7.03;;;;;;;2.93;74.64;99469.81;2618292;54;20026;-63
2022/02/05 06:31:12;;;;;;;14.50;7.90;;;;;;;3.00;75.03;99476.19;2618351;54;20030;-62
2022/02/05 06:33:42;;;;;;;16.10;7.03;;;;;;;3.00;74.48;99470.97;2618640;54;20580;-63
2022/02/05 06:36:11;;;;;;;13.05;6.40;;;;;;;2.97;74.60;99479.88;2618216;54;20126;-64
2022/02/05 06:38:41;;;;;;;15.30;7.40;;;;;;;3.00;74.35;99484.03;2618489;54;20062;-64
2022/02/05 06:41:10;;;;;;;11.07;6.47;;;;;;;2.97;74.57;99485.09;2618435;54;20159;-64
2022/02/05 06:43:40;;;;;;;15.43;7.10;;;;;;;2.88;74.47;99492.88;2618579;54;20046;-63
2022/02/05 06:46:12;;;;;;;15.30;7.00;;;;;;;2.94;74.32;99495.81;2618202;54;20150;-63
2022/02/05 06:48:42;;;;;;;13.55;8.07;;;;;;;2.95;74.37;99500.09;2618104;54;20614;-64
2022/02/05 06:51:12;;;;;;;13.93;7.93;;;;;;;2.94;74.24;99505.44;2618499;54;20660;-64
2022/02/05 06:53:41;;;;;;;17.55;8.30;;;;;;;2.98;74.52;99519.91;2618922;54;20038;-63
2022/02/05 06:56:11;;;;;;;14.23;8.35;;;;;;;3.07;74.75;99520.94;2622328;54;20038;-63
2022/02/05 06:58:40;;;;;;;14.75;8.10;;;;;;;3.05;74.44;99525.44;2623567;54;20089;-63
2022/02/05 07:01:13;;;;;;;14.43;8.73;;;;;;;3.07;74.21;99526.16;2624056;54;20031;-64
2022/02/05 07:03:42;;;;;;;15.63;8.88;;;;;;;3.16;74.58;99530.63;2620942;54;20030;-64
2022/02/05 07:06:12;;;;;;;13.77;8.15;;;;;;;3.20;74.32;99540.69;2622152;54;20577;-64
2022/02/05 07:08:43;;;;;;;16.45;8.43;;;;;;;3.16;73.63;99535.84;2622044;54;20030;-63
2022/02/05 07:11:13;;;;;;;15.25;8.80;;;;;;;3.12;73.71;99547.50;2619834;54;20039;-63
2022/02/05 07:13:42;;;;;;;13.73;8.75;;;;;;;3.15;74.20;99550.69;2623459;54;20030;-63
2022/02/05 07:16:19;;;;;;;18.30;9.27;;;;;;;3.25;74.25;99547.31;2621652;54;20027;-64
2022/02/05 07:18:59;;;;;;;16.92;9.90;;;;;;;3.31;74.23;99550.25;2619078;39;20093;-63
2022/02/05 07:21:35;;;;;;;13.85;9.13;;;;;;;3.35;73.73;99550.81;2618521;54;20030;-66
2022/02/05 07:24:24;;;;;;;20.65;9.85;;;;;;;3.38;73.96;99547.94;2618204;54;20030;-64
2022/02/05 07:29:36;;;;;;;19.20;9.20;;;;;;;3.43;73.78;99553.63;2622028;54;20035;-64
2022/02/05 07:32:09;;;;;;;19.42;10.38;;;;;;;3.53;74.07;99557.09;2621788;54;20049;-64
2022/02/05 07:34:39;;;;;;;19.17;9.80;;;;;;;3.49;73.51;99555.72;2619034;54;20554;-63
2022/02/05 07:37:09;;;;;;;19.67;9.73;;;;;;;3.47;73.27;99560.25;2618885;54;20077;-64
2022/02/05 07:39:45;;;;;;;18.13;9.45;;;;;;;3.51;73.10;99563.41;2618507;54;20034;-64
2022/02/05 07:42:17;;;;;;;17.20;9.25;;;;;;;3.52;73.59;99568.53;2618128;54;20035;-64
2022/02/05 07:44:52;;;;;;;17.55;9.90;;;;;;;3.54;72.97;99568.38;2617711;51;20083;-64
2022/02/05 07:47:27;;;;;;;17.35;9.02;;;;;;;3.53;73.52;99561.50;2618418;54;20086;-64
2022/02/05 07:49:56;;;;;;;15.27;9.07;;;;;;;3.61;73.31;99564.31;2618503;54;20085;-64
2022/02/05 07:52:26;;;;;;;15.57;8.77;;;;;;;3.69;73.37;99567.94;2618344;54;20069;-64
2022/02/05 07:54:56;;;;;;;19.08;10.60;;;;;;;3.78;73.12;99575.94;2618366;54;20031;-63
2022/02/05 07:57:27;;;;;;;14.73;8.60;;;;;;;3.74;72.94;99580.59;2618129;54;20581;-63
2022/02/05 07:59:56;;;;;;;17.75;11.55;;;;;;;3.78;73.15;99574.16;2618345;54;20042;-62
2022/02/05 08:02:28;;;;;;;20.33;10.77;;;;;;;3.84;73.25;99575.44;2619397;54;20596;-64
2022/02/05 08:04:58;;;;;;;17.00;10.75;;;;;;;3.85;72.85;99571.88;2622238;54;20070;-65
2022/02/05 08:07:28;;;;;;;20.77;11.18;;;;;;;3.86;72.98;99582.19;2618122;54;20042;-63
2022/02/05 08:10:00;;;;;;;18.15;12.15;;;;;;;3.85;72.89;99584.94;2618592;54;20046;-64
2022/02/05 08:12:32;;;;;;;19.55;8.45;;;;;;;3.86;72.71;99578.75;2618269;54;20155;-63
2022/02/05 08:15:02;;;;;;;14.73;6.55;;;;;;;3.82;72.41;99572.94;2618601;39;20426;-63
2022/02/05 08:17:36;;;;;;;14.93;7.22;;;;;;;3.85;72.98;99583.16;2618124;54;20117;-64
2022/02/05 08:20:06;;;;;;;;;;;;;;;3.84;72.63;99585.91;2618462;54;20046;-63
2022/02/05 08:22:36;;;;;;;18.17;6.90;;;;;;;3.91;72.44;99581.78;2618629;54;19946;-64
2022/02/05 08:25:07;;;;;;;13.85;6.10;;;;;;;3.91;72.73;99592.25;2618372;54;20061;-64
2022/02/05 08:27:38;;;;;;;11.07;6.45;;;;;;;3.93;72.82;99582.50;2618445;54;20030;-63
2022/02/05 08:30:11;;;;;;;17.30;6.30;;;;;;;3.95;73.12;99593.66;2618496;54;20569;-64
2022/02/05 08:32:45;;;;;;;11.25;7.20;;;;;;;4.03;73.01;99595.63;2617958;54;20026;-63
2022/02/05 08:35:15;;;;;;;18.75;8.57;;;;;;;4.07;72.87;99595.22;2617649;54;20162;-63
2022/02/05 08:37:48;;;;;;;13.43;5.88;;;;;;;4.08;72.18;99585.56;2618289;54;20059;-64
2022/02/05 08:40:17;;;;;;;12.45;5.35;;;;;;;4.06;72.75;99590.94;2618407;31;20503;-64
2022/02/05 08:42:48;;;;;;;12.43;5.38;;;;;;;4.09;72.40;99595.94;2618085;54;20082;-64
2022/02/05 08:45:18;;;;;;;15.05;5.18;;;;;;;4.09;72.60;99589.88;2617785;54;20042;-64
2022/02/05 08:47:50;;;;;;;11.70;5.45;;;;;;;4.14;72.24;99600.75;2618736;39;20426;-64
2022/02/05 08:50:19;;;;;;;12.32;5.80;;;;;;;4.13;72.21;99602.56;2618285;54;20109;-64
2022/02/05 08:52:53;;;;;;;15.07;5.82;;;;;;;4.13;72.75;99601.72;2619021;54;20030;-64
2022/02/05 08:55:23;;;;;;;13.77;5.47;;;;;;;4.12;72.68;99600.91;2619202;54;20061;-64
2022/02/05 08:57:54;;;;;;;12.50;6.28;;;;;;;4.19;72.51;99604.63;2619964;54;20035;-63
2022/02/05 09:00:26;;;;;;;11.13;6.53;;;;;;;4.23;72.55;99607.81;2621182;54;20030;-65
2022/02/05 09:03:02;;;;;;;12.02;5.32;;;;;;;4.33;72.71;99615.72;2620387;54;20572;-65
2022/02/05 09:05:41;;;;;;;12.70;5.45;;;;;;;4.31;72.33;99609.78;2620556;54;20027;-64
2022/02/05 09:08:21;;;;;;;11.65;5.85;;;;;;;4.24;72.63;99612.06;2620802;54;20044;-63
2022/02/05 09:10:58;;;;;;;17.25;6.53;;;;;;;4.31;72.60;99613.22;2623055;39;20450;-63
2022/02/05 09:13:52;;;;;;;13.27;6.35;;;;;;;4.30;72.58;99616.81;2621317;54;20026;-63
2022/02/05 09:16:22;;;;;;;16.20;6.40;;;;;;;4.13;72.31;99625.28;2621374;54;20078;-63
2022/02/05 09:18:55;;;;;;;12.00;6.57;;;;;;;4.13;72.69;99622.66;2621451;54;20046;-63
2022/02/05 09:21:30;;;;;;;12.35;6.15;;;;;;;4.25;72.38;99623.41;2621892;54;20026;-65
2022/02/05 09:24:02;;;;;;;12.10;6.68;;;;;;;4.34;72.33;99620.81;2620693;54;20103;-64
2022/02/05 09:26:32;;;;;;;20.73;7.45;;;;;;;4.37;72.28;99622.34;2620890;54;20038;-64
2022/02/05 09:29:03;;;;;;;20.92;8.25;;;;;;;4.35;71.96;99639.97;2620271;54;20086;-64
2022/02/05 09:31:35;;;;;;;13.77;6.85;;;;;;;4.30;71.89;99626.44;2620096;39;20430;-64
2022/02/05 09:34:08;;;;;;;13.25;6.65;;;;;;;4.36;72.10;99626.72;2619941;54;20022;-65
2022/02/05 09:36:39;;;;;;;13.43;6.72;;;;;;;4.47;72.10;99629.25;2619994;54;20633;-65
2022/02/05 09:39:10;;;;;;;13.95;6.30;;;;;;;4.62;71.80;99631.50;2618572;54;20031;-64
2022/02/05 09:41:41;;;;;;;14.90;7.28;;;;;;;4.73;71.43;99631.38;2619602;54;20039;-65
2022/02/05 09:44:11;;;;;;;18.23;7.93;;;;;;;4.71;71.78;99631.53;2620965;54;20042;-63
2022/02/05 09:46:42;;;;;;;14.38;7.40;;;;;;;4.60;71.23;99636.84;2621971;54;20026;-64
2022/02/05 09:49:16;;;;;;;16.25;7.72;;;;;;;4.55;71.56;99636.44;2620789;47;20030;-64
2022/02/05 09:51:55;;;;;;;17.75;8.85;;;;;;;4.62;71.78;99648.03;2618822;54;20038;-64
2022/02/05 09:54:25;;;;;;;17.20;7.82;;;;;;;4.56;71.73;99639.88;2618489;54;20037;-64
2022/02/05 09:56:55;;;;;;;15.80;8.15;;;;;;;4.65;71.42;99652.16;2618584;46;20622;-64
2022/02/05 09:59:25;;;;;;;14.77;6.85;;;;;;;4.64;71.46;99653.13;2618919;54;20041;-64
2022/02/05 10:02:25;;;;;;;15.50;7.75;;;;;;;4.70;71.21;99653.44;2618704;54;20065;-64
2022/02/05 10:05:04;;;;;;;16.52;8.77;;;;;;;4.76;70.93;99665.16;2618314;54;20090;-64
2022/02/05 10:07:58;;;;;;;13.10;8.73;;;;;;;4.81;70.77;99656.91;2619123;54;20030;-65
2022/02/05 10:10:39;;;;;;;15.80;9.70;;;;;;;4.89;70.64;99665.72;2618513;54;20027;-65
2022/02/05 10:13:11;;;;;;;17.10;9.20;;;;;;;4.86;70.77;99660.78;2619031;54;20042;-64
2022/02/05 10:15:43;;;;;;;17.85;9.65;;;;;;;4.77;70.81;99672.06;2618034;47;20078;-64
2022/02/05 10:18:25;;;;;;;16.35;9.93;;;;;;;4.91;70.99;99668.25;2618176;54;20035;-64
2022/02/05 10:20:59;;;;;;;18.60;9.25;;;;;;;4.99;70.56;99668.38;2618099;47;20534;-63
2022/02/05 10:23:29;;;;;;;;;;;;;;;5.09;70.16;99658.72;2618530;47;20073;-64
2022/02/05 10:25:59;;;;;;;14.73;8.23;;;;;;;5.17;70.31;99671.16;2618832;54;19982;-64
2022/02/05 10:28:28;;;;;;;13.43;7.78;;;;;;;5.23;69.86;99665.38;2618851;54;20073;-64
2022/02/05 10:30:58;;;;;;;16.80;7.70;;;;;;;5.22;69.83;99661.09;2618968;54;20047;-64
2022/02/05 10:33:31;;;;;;;13.20;7.28;;;;;;;5.19;69.62;99669.25;2618853;54;20054;-65
2022/02/05 10:36:10;;;;;;;15.63;7.53;;;;;;;5.10;69.21;99665.66;2618419;54;20037;-65
2022/02/05 10:39:09;;;;;;;16.40;8.45;;;;;;;4.94;69.79;99660.13;2618573;54;20553;-65
2022/02/05 10:44:26;;;;;;;14.40;7.55;;;;;;;5.19;69.64;99659.59;2618660;54;20030;-63
2022/02/05 10:46:58;;;;;;;13.70;7.07;;;;;;;5.31;69.51;99655.03;2621505;54;20042;-64
2022/02/05 10:49:46;;;;;;;22.77;8.48;;;;;;;5.56;69.54;99650.19;2619736;54;20055;-64
2022/02/05 10:52:34;;;;;;;20.90;8.80;;;;;;;5.65;68.73;99667.72;2618769;54;20064;-66
2022/02/05 10:55:15;;;;;;;15.95;6.88;;;;;;;5.62;68.56;99667.97;2618257;54;20118;-66
2022/02/05 10:58:09;;;;;;;16.38;6.97;;;;;;;5.74;68.41;99663.41;2618441;54;20042;-64
2022/02/05 11:06:04;;;;;;;11.88;5.95;;;;;;;6.18;66.77;99643.59;2620123;54;20033;-64
2022/02/05 11:08:38;;;;;;;11.98;6.45;;;;;;;6.25;66.50;99642.03;2619866;54;20123;-64
2022/02/05 11:17:02;;;;;;;15.10;7.17;;;;;;;6.29;66.57;99640.78;2618154;54;20039;-64
2022/02/05 11:19:31;;;;;;;13.80;7.65;;;;;;;6.33;66.70;99644.78;2618748;54;20063;-65
2022/02/05 11:22:01;;;;;;;15.25;6.47;;;;;;;6.20;66.25;99654.75;2618973;54;20061;-65
2022/02/05 11:24:35;;;;;;;12.90;6.63;;;;;;;6.11;66.65;99655.63;2618247;54;20034;-65
2022/02/05 11:27:05;;;;;;;;;;;;;;;5.87;67.46;99646.38;2619717;54;20038;-64
2022/02/05 11:29:36;;;;;;;19.13;6.22;;;;;;;5.74;67.79;99651.13;2620954;54;19978;-64
2022/02/05 11:32:26;;;;;;;14.00;6.85;;;;;;;5.65;67.80;99641.47;2619742;54;20034;-65
2022/02/05 11:35:06;;;;;;;13.80;6.25;;;;;;;5.72;67.89;99655.69;2618121;54;20086;-65
2022/02/05 11:37:55;;;;;;;15.57;6.68;;;;;;;5.72;67.61;99656.53;2618863;47;20034;-65
2022/02/05 11:40:52;;;;;;;13.32;6.07;;;;;;;5.70;68.04;99661.06;2619558;54;20030;-64
2022/02/05 11:43:24;;;;;;;15.45;6.75;;;;;;;5.78;68.19;99643.81;2620331;54;20034;-65
2022/02/05 11:46:08;;;;;;;14.13;6.82;;;;;;;5.88;67.95;99652.50;2621025;54;20035;-63
2022/02/05 11:49:05;;;;;;;16.00;5.70;;;;;;;5.77;67.53;99652.66;2620426;47;20038;-64
2022/02/05 11:51:40;;;;;;;14.43;6.53;;;;;;;5.51;68.15;99652.38;2618344;54;20061;-64
2022/02/05 11:54:15;;;;;;;16.48;6.50;;;;;;;5.44;68.34;99657.38;2618456;54;20039;-65
2022/02/05 11:56:56;;;;;;;13.68;7.22;;;;;;;5.36;68.92;99663.31;2618934;54;20058;-64
2022/02/05 11:59:30;;;;;;;12.77;6.15;;;;;;;5.32;68.83;99667.19;2618866;54;20577;-64
2022/02/05 12:02:15;;;;;;;;;;;;;;;5.36;68.73;99663.31;2618879;54;20078;-64
2022/02/05 12:04:45;;;;;;;11.00;5.47;;;;;;;5.44;68.83;99657.38;2618440;47;19950;-64
2022/02/05 12:07:18;;;;;;;12.30;6.07;;;;;;;5.39;69.17;99654.34;2620247;54;20026;-67
2022/02/05 12:09:58;;;;;;;13.82;6.57;;;;;;;5.46;69.28;99650.19;2622964;54;20034;-64
2022/02/05 12:12:46;;;;;;;12.25;6.57;;;;;;;5.67;69.30;99645.63;2622485;54;20018;-65
2022/02/05 12:15:26;;;;;;;15.05;7.70;;;;;;;5.74;68.39;99652.91;2622343;54;20029;-64
2022/02/05 12:21:07;;;;;;;12.50;5.85;;;;;;;5.79;68.00;99634.94;2621722;54;20033;-64
2022/02/05 12:26:49;;;;;;;15.10;8.20;;;;;;;5.89;68.04;99622.66;2621277;54;20027;-65
2022/02/05 12:29:35;;;;;;;17.45;5.93;;;;;;;5.92;67.93;99627.66;2623151;54;20030;-65
2022/02/05 12:32:08;;;;;;;13.63;5.82;;;;;;;6.00;68.07;99624.28;2622432;54;20038;-64
2022/02/05 12:34:40;;;;;;;12.05;5.68;;;;;;;6.10;68.11;99620.69;2619139;54;20038;-66
2022/02/05 12:37:10;;;;;;;14.63;6.75;;;;;;;6.04;67.67;99615.16;2619024;54;20074;-64
2022/02/05 12:39:39;;;;;;;14.88;6.43;;;;;;;6.04;67.64;99610.75;2618716;54;20038;-65
2022/02/05 12:42:15;;;;;;;12.57;5.80;;;;;;;5.93;68.38;99613.56;2619257;54;20033;-64
2022/02/05 12:44:48;;;;;;;11.00;4.65;;;;;;;5.93;68.27;99609.13;2618659;54;20031;-64
2022/02/05 12:47:25;;;;;;;10.88;4.57;;;;;;;5.88;68.85;99597.38;2618744;54;20058;-64
2022/02/05 12:50:06;;;;;;;8.27;4.60;;;;;;;5.79;69.50;99604.28;2618883;54;20038;-63
2022/02/05 12:52:36;;;;;;;8.50;4.30;;;;;;;5.69;69.48;99598.25;2618098;47;20050;-64
2022/02/05 12:55:13;;;;;;;14.85;5.43;;;;;;;5.65;70.42;99599.50;2618154;46;20115;-64
2022/02/05 12:57:46;;;;;;;12.82;5.30;;;;;;;5.78;70.63;99600.03;2619458;39;20434;-64
2022/02/05 13:00:20;;;;;;;14.05;5.63;;;;;;;5.86;71.04;99602.75;2618635;54;20096;-62
2022/02/05 13:02:49;;;;;;;8.48;5.45;;;;;;;5.91;71.53;99595.28;2618120;54;20042;-64
2022/02/05 13:05:19;;;;;;;8.32;4.30;;;;;;;5.84;71.29;99596.03;2617789;54;20031;-64
2022/02/05 13:07:52;;;;;;;12.60;8.30;;;;;;;5.82;71.54;99600.56;2618539;54;20026;-65
2022/02/05 13:10:24;;;;;;;11.55;4.97;;;;;;;5.73;71.90;99597.00;2618656;54;20067;-62
2022/02/05 13:12:57;;;;;;;9.90;4.60;;;;;;;5.69;71.69;99590.38;2618986;54;20026;-64
2022/02/05 13:15:30;;;;;;;7.90;4.53;;;;;;;5.79;71.99;99595.59;2619135;54;20041;-63
2022/02/05 13:18:15;;;;;;;10.07;5.20;;;;;;;5.76;71.76;99595.91;2619186;54;20330;-64
2022/02/05 13:26:22;;;;;;;8.07;4.53;;;;;;;5.46;72.89;99595.94;2621878;54;20045;-65
2022/02/05 13:29:17;;;;;;;10.40;4.55;;;;;;;5.43;73.03;99595.41;2622234;54;20031;-65
2022/02/05 13:34:35;;;;;;;10.43;4.80;;;;;;;5.62;72.46;99589.28;2619657;39;20446;-65
2022/02/05 13:37:14;;;;;;;;;;;;;;;5.71;72.93;99584.03;2619959;39;20426;-64
2022/02/05 13:39:56;;;;;;;9.82;4.57;;;;;;;5.63;72.49;99590.94;2618809;54;19946;-64
2022/02/05 13:42:29;;;;;;;6.25;4.00;;;;;;;5.65;72.46;99576.72;2618806;54;20042;-65
2022/02/05 13:45:02;;;;;;;6.45;4.22;;;;;;;5.62;72.57;99595.34;2618792;54;20184;-65
2022/02/05 13:47:36;;;;;;;7.18;4.78;;;;;;;5.63;72.92;99591.78;2618388;54;20077;-65
2022/02/05 13:50:11;;;;;;;9.00;4.28;;;;;;;5.58;72.38;99590.53;2618509;47;20046;-64
2022/02/05 13:52:44;;;;;;;9.63;4.70;;;;;;;5.57;72.88;99596.75;2619795;31;20522;-65
2022/02/05 13:55:20;;;;;;;10.40;4.55;;;;;;;5.56;73.15;99600.38;2618595;54;20558;-64
2022/02/05 13:57:58;;;;;;;9.32;5.10;;;;;;;5.53;73.08;99588.34;2618250;54;20154;-64
2022/02/05 14:00:41;;;;;;;8.00;4.65;;;;;;;5.52;73.09;99580.63;2619146;54;20038;-65
2022/02/05 14:03:14;;;;;;;10.13;7.25;;;;;;;5.46;72.97;99590.69;2619195;39;20130;-65
2022/02/05 14:06:03;;;;;;;11.90;5.97;;;;;;;5.47;73.19;99594.16;2617966;54;20065;-64
2022/02/05 14:08:35;;;;;;;10.10;5.22;;;;;;;5.37;73.07;99578.44;2618825;54;20027;-64